Time;durP1;ratioP1;P1;durP2;ratioP2;P2;SDS_P1;SDS_P2;PMS_P1;PMS_P2;Temp;Humidity;BMP_temperature;BMP_pressure;BME280_temperature;BME280_humidity;BME280_pressure;Samples;Min_cycle;Max_cycle;Signal;HPM_P1;HPM_P2
2022/10/06 00:01:44;;;;;;;9.55;1.65;;;;;;;;;;6271517;22;20480;-76
2022/10/06 00:04:11;;;;;;;5.00;1.45;;;;;;;;;;6273065;22;20027;-77
2022/10/06 00:06:45;;;;;;;8.10;1.23;;;;;;;;;;6273805;22;20039;-77
2022/10/06 00:09:12;;;;;;;8.13;0.82;;;;;;;;;;6270166;22;20030;-77
2022/10/06 00:11:46;;;;;;;6.10;1.08;;;;;;;;;;6270959;22;20026;-76
2022/10/06 00:14:13;;;;;;;2.95;1.20;;;;;;;;;;6272026;22;20026;-77
2022/10/06 00:16:47;;;;;;;10.00;1.70;;;;;;;;;;6271407;22;20099;-77
2022/10/06 00:19:14;;;;;;;6.30;1.35;;;;;;;;;;6272705;22;20020;-77
2022/10/06 00:21:41;;;;;;;7.82;1.30;;;;;;;;;;6273291;22;20016;-76
2022/10/06 00:24:15;;;;;;;6.72;1.17;;;;;;;;;;6269654;22;20487;-77
2022/10/06 00:26:42;;;;;;;4.38;1.02;;;;;;;;;;6272988;22;20020;-78
2022/10/06 00:29:17;;;;;;;7.03;1.20;;;;;;;;;;6273630;22;20086;-76
2022/10/06 00:31:44;;;;;;;9.88;1.80;;;;;;;;;;6271893;22;20047;-76
2022/10/06 00:34:13;;;;;;;8.40;1.50;;;;;;;;;;6271919;22;20077;-76
2022/10/06 00:36:47;;;;;;;13.27;1.50;;;;;;;;;;6272839;22;20130;-76
2022/10/06 00:39:14;;;;;;;12.05;1.75;;;;;;;;;;6271871;22;20022;-76
2022/10/06 00:41:48;;;;;;;14.48;1.70;;;;;;;;;;6273211;22;20037;-76
2022/10/06 00:44:22;;;;;;;13.68;1.60;;;;;;;;;;6297557;22;20130;-76
2022/10/06 00:46:55;;;;;;;16.17;2.00;;;;;;;;;;6303504;22;20019;-76
2022/10/06 00:49:31;;;;;;;12.55;2.47;;;;;;;;;;6303757;22;20019;-76
2022/10/06 00:52:07;;;;;;;14.38;2.00;;;;;;;;;;6303446;22;20023;-76
2022/10/06 00:54:35;;;;;;;16.42;2.40;;;;;;;;;;6304368;22;20043;-76
2022/10/06 00:57:02;;;;;;;;;;;;;;;;;;6304915;22;20118;-76
2022/10/06 00:59:37;;;;;;;18.90;2.58;;;;;;;;;;6303871;22;19914;-75
2022/10/06 01:02:13;;;;;;;20.77;2.42;;;;;;;;;;6304465;22;20045;-75
2022/10/06 01:04:44;;;;;;;18.50;2.67;;;;;;;;;;6301943;22;20030;-76
2022/10/06 01:07:19;;;;;;;26.80;2.63;;;;;;;;;;6303185;22;20130;-76
2022/10/06 01:09:47;;;;;;;10.57;2.33;;;;;;;;;;6304317;22;20081;-75
2022/10/06 01:12:14;;;;;;;13.43;2.70;;;;;;;;;;6303620;22;20099;-75
2022/10/06 01:14:48;;;;;;;30.80;3.45;;;;;;;;;;6303218;22;20126;-76
2022/10/06 01:17:15;;;;;;;;;;;;;;;;;;6304617;22;20015;-76
2022/10/06 01:19:49;;;;;;;23.75;3.03;;;;;;;;;;6301097;22;20254;-76
2022/10/06 01:22:17;;;;;;;19.40;3.65;;;;;;;;;;6302288;22;20015;-75
2022/10/06 01:24:51;;;;;;;19.80;2.88;;;;;;;;;;6273649;22;20023;-76
2022/10/06 01:27:27;;;;;;;28.20;3.33;;;;;;;;;;6275489;22;20055;-74
2022/10/06 01:29:55;;;;;;;22.85;3.42;;;;;;;;;;6302175;22;20102;-77
2022/10/06 01:32:33;;;;;;;28.17;4.18;;;;;;;;;;6275696;22;20027;-76
2022/10/06 01:35:00;;;;;;;29.88;3.22;;;;;;;;;;6302850;22;20098;-76
2022/10/06 01:37:28;;;;;;;24.98;3.83;;;;;;;;;;6301233;22;20114;-76
2022/10/06 01:40:01;;;;;;;25.20;3.63;;;;;;;;;;6302758;22;20037;-76
2022/10/06 01:42:42;;;;;;;24.40;3.40;;;;;;;;;;6274698;22;20483;-76
2022/10/06 01:45:16;;;;;;;24.25;3.67;;;;;;;;;;6302803;22;20023;-76
2022/10/06 01:47:50;;;;;;;29.73;3.83;;;;;;;;;;6302763;22;20094;-76
2022/10/06 01:50:17;;;;;;;32.90;4.20;;;;;;;;;;6303094;22;20082;-76
2022/10/06 01:52:51;;;;;;;26.45;4.10;;;;;;;;;;6302887;22;20022;-76
2022/10/06 01:55:18;;;;;;;22.45;3.70;;;;;;;;;;6302547;22;20754;-76
2022/10/06 01:57:45;;;;;;;31.95;4.22;;;;;;;;;;6276088;22;20070;-76
2022/10/06 02:00:19;;;;;;;28.92;3.63;;;;;;;;;;6275373;22;20061;-76
2022/10/06 02:02:47;;;;;;;29.08;3.20;;;;;;;;;;6303691;22;20023;-75
2022/10/06 02:05:20;;;;;;;33.28;3.72;;;;;;;;;;6302795;22;20023;-76
2022/10/06 02:07:47;;;;;;;29.10;4.20;;;;;;;;;;6275106;22;20408;-76
2022/10/06 02:10:15;;;;;;;23.70;3.50;;;;;;;;;;6303142;22;20031;-76
2022/10/06 02:12:52;;;;;;;27.25;4.45;;;;;;;;;;6302220;22;20084;-75
2022/10/06 02:15:19;;;;;;;25.40;4.03;;;;;;;;;;6300177;22;20029;-76
2022/10/06 02:17:54;;;;;;;29.90;3.78;;;;;;;;;;6302886;22;20110;-76
2022/10/06 02:20:21;;;;;;;39.13;4.60;;;;;;;;;;6303333;22;20045;-76
2022/10/06 02:22:49;;;;;;;35.47;4.15;;;;;;;;;;6302135;22;20452;-75
2022/10/06 02:25:22;;;;;;;28.95;3.80;;;;;;;;;;6300178;22;20027;-76
2022/10/06 02:27:49;;;;;;;27.67;3.65;;;;;;;;;;6302853;22;20022;-76
2022/10/06 02:30:23;;;;;;;31.35;3.75;;;;;;;;;;6300821;22;20639;-75
2022/10/06 02:32:50;;;;;;;25.92;3.85;;;;;;;;;;6304606;22;20094;-74
2022/10/06 02:35:17;;;;;;;25.65;4.10;;;;;;;;;;6303559;22;20412;-75
2022/10/06 02:37:51;;;;;;;26.55;4.05;;;;;;;;;;6300848;22;20027;-76
2022/10/06 02:40:18;;;;;;;24.15;3.55;;;;;;;;;;6302397;22;20019;-75
2022/10/06 02:42:59;;;;;;;28.13;3.90;;;;;;;;;;6301197;22;20518;-76
2022/10/06 02:45:33;;;;;;;33.15;3.70;;;;;;;;;;6300741;22;20027;-75
2022/10/06 02:48:08;;;;;;;23.02;3.75;;;;;;;;;;6301516;22;20102;-77
2022/10/06 02:50:41;;;;;;;24.35;3.45;;;;;;;;;;6301649;22;20055;-76
2022/10/06 02:53:15;;;;;;;27.85;3.67;;;;;;;;;;6301552;22;20019;-76
2022/10/06 02:55:42;;;;;;;28.50;4.28;;;;;;;;;;6301737;22;20455;-75
2022/10/06 02:58:16;;;;;;;20.27;3.45;;;;;;;;;;6276412;22;20026;-76
2022/10/06 03:00:43;;;;;;;28.63;3.63;;;;;;;;;;6274745;22;20053;-76
2022/10/06 03:03:11;;;;;;;25.60;4.03;;;;;;;;;;6300692;22;20486;-76
2022/10/06 03:05:44;;;;;;;31.05;4.03;;;;;;;;;;6300994;22;20031;-75
2022/10/06 03:08:11;;;;;;;25.50;3.45;;;;;;;;;;6300788;22;20099;-75
2022/10/06 03:10:45;;;;;;;22.40;3.80;;;;;;;;;;6276277;22;20531;-76
2022/10/06 03:13:13;;;;;;;;;;;;;;;;;;6303680;22;20535;-76
2022/10/06 03:15:46;;;;;;;25.98;3.58;;;;;;;;;;6302036;22;19915;-76
2022/10/06 03:18:13;;;;;;;31.40;3.45;;;;;;;;;;6302904;22;20027;-75
2022/10/06 03:20:47;;;;;;;24.85;4.20;;;;;;;;;;6275124;22;20106;-76
2022/10/06 03:23:15;;;;;;;36.25;4.43;;;;;;;;;;6301786;22;20490;-76
2022/10/06 03:25:42;;;;;;;26.42;3.40;;;;;;;;;;6300620;22;20066;-76
2022/10/06 03:28:15;;;;;;;25.35;4.25;;;;;;;;;;6301644;22;20030;-75
2022/10/06 03:30:43;;;;;;;27.50;3.67;;;;;;;;;;6302565;22;20384;-76
2022/10/06 03:33:16;;;;;;;34.05;3.95;;;;;;;;;;6302979;22;20461;-76
2022/10/06 03:35:43;;;;;;;22.30;3.33;;;;;;;;;;6274358;22;20779;-76
2022/10/06 03:38:10;;;;;;;23.33;3.85;;;;;;;;;;6301778;22;20019;-76
2022/10/06 03:40:44;;;;;;;30.58;3.80;;;;;;;;;;6301837;22;20038;-75
2022/10/06 03:43:11;;;;;;;30.77;3.75;;;;;;;;;;6299540;22;20026;-75
2022/10/06 03:45:55;;;;;;;27.25;3.50;;;;;;;;;;6301151;22;20470;-76
2022/10/06 03:48:22;;;;;;;31.70;4.15;;;;;;;;;;6302238;22;20015;-76
2022/10/06 03:50:58;;;;;;;36.28;4.38;;;;;;;;;;6302835;22;20099;-75
2022/10/06 03:53:27;;;;;;;27.55;3.65;;;;;;;;;;6301823;22;20102;-75
2022/10/06 03:56:14;;;;;;;36.15;4.60;;;;;;;;;;6301750;22;20019;-75
2022/10/06 03:58:58;;;;;;;31.00;4.10;;;;;;;;;;6300529;22;20498;-75
2022/10/06 04:01:36;;;;;;;38.00;3.92;;;;;;;;;;6300624;22;20415;-75
2022/10/06 04:04:04;;;;;;;44.67;4.22;;;;;;;;;;6273769;22;20023;-75
2022/10/06 04:06:39;;;;;;;39.25;4.00;;;;;;;;;;6301681;22;20109;-75
2022/10/06 04:09:07;;;;;;;22.65;3.88;;;;;;;;;;6302941;22;20045;-75
2022/10/06 04:11:41;;;;;;;33.60;3.42;;;;;;;;;;6301536;22;20023;-75
2022/10/06 04:14:15;;;;;;;31.98;3.60;;;;;;;;;;6301884;22;20061;-75
2022/10/06 04:16:49;;;;;;;28.27;3.88;;;;;;;;;;6302223;22;20106;-76
2022/10/06 04:19:17;;;;;;;31.88;3.72;;;;;;;;;;6301137;22;20019;-75
2022/10/06 04:21:51;;;;;;;30.80;4.00;;;;;;;;;;6300784;22;20090;-76
2022/10/06 04:24:18;;;;;;;25.73;4.40;;;;;;;;;;6301139;22;20015;-75
2022/10/06 04:26:52;;;;;;;29.08;3.70;;;;;;;;;;6301017;22;20033;-75
2022/10/06 04:29:19;;;;;;;30.13;3.33;;;;;;;;;;6302240;22;20019;-76
2022/10/06 04:31:48;;;;;;;29.20;4.35;;;;;;;;;;6303939;22;20019;-76
2022/10/06 04:34:21;;;;;;;21.88;3.90;;;;;;;;;;6303045;22;20025;-74
2022/10/06 04:36:48;;;;;;;38.95;4.30;;;;;;;;;;6304526;22;20094;-76
2022/10/06 04:39:22;;;;;;;36.38;3.75;;;;;;;;;;6304636;22;20019;-77
2022/10/06 04:41:49;;;;;;;22.48;2.10;;;;;;;;;;6303300;22;20030;-76
2022/10/06 04:44:17;;;;;;;13.43;2.42;;;;;;;;;;6271773;22;20024;-76
2022/10/06 04:46:50;;;;;;;19.25;2.70;;;;;;;;;;6272284;22;20024;-78
2022/10/06 04:49:18;;;;;;;18.10;2.22;;;;;;;;;;6270651;22;20340;-76
2022/10/06 04:51:51;;;;;;;23.85;2.70;;;;;;;;;;6269945;22;20114;-76
2022/10/06 04:54:18;;;;;;;12.85;2.60;;;;;;;;;;6271312;22;20091;-76
2022/10/06 04:56:59;;;;;;;16.42;2.30;;;;;;;;;;6271749;22;20050;-76
2022/10/06 05:00:21;;;;;;;11.70;2.20;;;;;;;;;;6272619;22;20016;-76
2022/10/06 05:02:21;;;;;;;16.08;2.08;;;;;;;;;;6272400;22;20055;-76
2022/10/06 05:04:48;;;;;;;12.35;1.70;;;;;;;;;;6271624;22;20085;-76
2022/10/06 05:07:15;;;;;;;17.60;2.45;;;;;;;;;;6273542;22;20142;-76
2022/10/06 05:09:49;;;;;;;19.83;2.22;;;;;;;;;;6273363;22;20461;-76
2022/10/06 05:12:16;;;;;;;15.85;2.05;;;;;;;;;;6273203;22;20054;-76
2022/10/06 05:14:50;;;;;;;19.42;2.30;;;;;;;;;;6273743;22;20016;-76
2022/10/06 05:17:17;;;;;;;18.75;2.08;;;;;;;;;;6272914;22;20030;-77
2022/10/06 05:19:51;;;;;;;20.30;2.22;;;;;;;;;;6273049;22;20090;-76
2022/10/06 05:22:18;;;;;;;32.28;3.20;;;;;;;;;;6272702;22;20023;-76
2022/10/06 05:24:46;;;;;;;17.15;2.25;;;;;;;;;;6272020;22;20094;-76
2022/10/06 05:27:20;;;;;;;27.02;2.58;;;;;;;;;;6271905;22;20473;-77
2022/10/06 05:29:47;;;;;;;20.38;2.42;;;;;;;;;;6271205;22;20015;-76
2022/10/06 05:32:14;;;;;;;19.10;2.28;;;;;;;;;;6271570;22;20023;-76
2022/10/06 05:34:48;;;;;;;22.23;2.85;;;;;;;;;;6271503;22;20099;-76
2022/10/06 05:37:15;;;;;;;21.33;2.38;;;;;;;;;;6272341;22;20551;-76
2022/10/06 05:39:49;;;;;;;31.30;3.55;;;;;;;;;;6271856;22;20024;-76
2022/10/06 05:42:16;;;;;;;21.40;3.10;;;;;;;;;;6272442;22;20128;-76
2022/10/06 05:44:43;;;;;;;37.60;3.13;;;;;;;;;;6296559;22;20023;-76
2022/10/06 05:47:17;;;;;;;19.55;2.25;;;;;;;;;;6278206;22;20019;-76
2022/10/06 05:49:44;;;;;;;20.52;2.47;;;;;;;;;;6303622;22;20019;-76
2022/10/06 05:52:18;;;;;;;32.15;3.25;;;;;;;;;;6303753;22;20098;-76
2022/10/06 05:54:49;;;;;;;25.08;2.40;;;;;;;;;;6303175;22;20556;-76
2022/10/06 05:57:23;;;;;;;24.35;2.78;;;;;;;;;;6302302;22;20076;-76
2022/10/06 05:59:51;;;;;;;17.17;3.25;;;;;;;;;;6302526;22;20443;-75
2022/10/06 06:02:18;;;;;;;23.15;2.50;;;;;;;;;;6303076;22;20026;-76
2022/10/06 06:04:51;;;;;;;16.05;2.38;;;;;;;;;;6302323;22;20401;-76
2022/10/06 06:07:18;;;;;;;28.65;2.65;;;;;;;;;;6275816;22;20054;-75
2022/10/06 06:09:52;;;;;;;21.77;2.60;;;;;;;;;;6302762;22;20019;-76
2022/10/06 06:12:19;;;;;;;19.45;2.38;;;;;;;;;;6302741;22;20019;-76
2022/10/06 06:17:56;;;;;;;24.52;2.75;;;;;;;;;;6166229;22;20024;-76
2022/10/06 06:20:29;;;;;;;20.23;2.60;;;;;;;;;;6302664;22;20019;-76
2022/10/06 06:22:56;;;;;;;32.85;3.17;;;;;;;;;;6303232;22;20025;-77
2022/10/06 06:25:23;;;;;;;31.77;3.38;;;;;;;;;;6301343;22;20023;-76
2022/10/06 06:27:57;;;;;;;23.48;3.13;;;;;;;;;;6303062;22;20640;-76
2022/10/06 06:30:24;;;;;;;28.90;3.20;;;;;;;;;;6301379;22;20023;-76
2022/10/06 06:32:59;;;;;;;24.38;2.33;;;;;;;;;;6303022;22;20019;-76
2022/10/06 06:35:26;;;;;;;;;;;;;;;;;;6303396;22;20023;-76
2022/10/06 06:37:53;;;;;;;28.27;2.80;;;;;;;;;;6302384;22;19938;-76
2022/10/06 06:40:27;;;;;;;35.55;2.83;;;;;;;;;;6302021;22;20016;-76
2022/10/06 06:42:54;;;;;;;;;;;;;;;;;;6302524;22;20019;-76
2022/10/06 06:45:34;;;;;;;21.85;3.05;;;;;;;;;;6300825;22;20249;-75
2022/10/06 06:48:02;;;;;;;26.38;3.00;;;;;;;;;;6302524;22;20025;-76
2022/10/06 06:50:35;;;;;;;25.90;3.13;;;;;;;;;;6302530;22;20472;-76
2022/10/06 06:53:02;;;;;;;27.08;3.45;;;;;;;;;;6275245;22;20480;-77
2022/10/06 06:55:49;;;;;;;23.05;3.28;;;;;;;;;;6301617;22;20019;-76
2022/10/06 06:58:17;;;;;;;29.00;4.25;;;;;;;;;;6302773;22;20020;-77
2022/10/06 07:00:51;;;;;;;26.48;3.20;;;;;;;;;;6302753;22;20094;-76
2022/10/06 07:03:20;;;;;;;25.35;3.25;;;;;;;;;;6301092;22;20081;-76
2022/10/06 07:06:08;;;;;;;25.80;2.70;;;;;;;;;;6303464;22;20456;-77
2022/10/06 07:08:43;;;;;;;31.50;3.58;;;;;;;;;;6277339;22;20020;-77
2022/10/06 07:11:11;;;;;;;28.58;3.50;;;;;;;;;;6302797;22;20510;-77
2022/10/06 07:13:46;;;;;;;27.10;3.38;;;;;;;;;;6303291;22;20023;-76
2022/10/06 07:25:05;;;;;;;26.08;3.78;;;;;;;;;;6303346;22;20034;-76
2022/10/06 07:27:37;;;;;;;36.28;4.63;;;;;;;;;;6302833;22;20023;-75
2022/10/06 07:30:12;;;;;;;37.65;4.20;;;;;;;;;;6276692;22;20019;-76
2022/10/06 07:32:39;;;;;;;37.20;4.45;;;;;;;;;;6302144;22;20037;-76
2022/10/06 07:35:06;;;;;;;30.70;4.10;;;;;;;;;;6303004;22;20025;-76
2022/10/06 07:37:40;;;;;;;30.58;3.58;;;;;;;;;;6302819;22;20024;-76
2022/10/06 07:40:08;;;;;;;36.00;4.25;;;;;;;;;;6302004;22;20026;-76
2022/10/06 07:42:50;;;;;;;31.85;3.97;;;;;;;;;;6301809;22;20028;-76
2022/10/06 07:45:37;;;;;;;35.88;4.28;;;;;;;;;;6300265;22;20026;-77
2022/10/06 07:48:14;;;;;;;36.25;4.28;;;;;;;;;;6276553;22;20496;-76
2022/10/06 07:50:42;;;;;;;23.95;4.32;;;;;;;;;;6302193;22;20022;-76
2022/10/06 07:53:09;;;;;;;34.10;4.25;;;;;;;;;;6301566;22;20102;-76
2022/10/06 07:55:45;;;;;;;34.15;4.15;;;;;;;;;;6300886;22;20023;-76
2022/10/06 07:58:13;;;;;;;30.65;3.90;;;;;;;;;;6302192;22;20098;-76
2022/10/06 08:00:47;;;;;;;40.20;4.65;;;;;;;;;;6302304;22;20015;-76
2022/10/06 08:03:16;;;;;;;39.88;5.90;;;;;;;;;;6301788;22;20094;-76
2022/10/06 08:05:56;;;;;;;29.95;4.60;;;;;;;;;;6277913;22;20057;-76
2022/10/06 08:08:23;;;;;;;37.05;5.53;;;;;;;;;;6304077;22;20069;-76
2022/10/06 08:10:59;;;;;;;37.47;5.22;;;;;;;;;;6303120;22;20015;-76
2022/10/06 08:13:30;;;;;;;26.98;4.47;;;;;;;;;;6303923;22;20020;-76
2022/10/06 08:16:05;;;;;;;36.88;5.60;;;;;;;;;;6278520;22;20118;-77
2022/10/06 08:18:33;;;;;;;39.50;5.00;;;;;;;;;;6303654;22;20019;-76
2022/10/06 08:21:13;;;;;;;40.72;4.90;;;;;;;;;;6304525;22;20015;-76
2022/10/06 08:23:48;;;;;;;39.88;4.78;;;;;;;;;;6304321;22;20094;-76
2022/10/06 08:26:16;;;;;;;34.80;5.68;;;;;;;;;;6305017;22;20536;-76
2022/10/06 08:28:47;;;;;;;40.47;5.25;;;;;;;;;;6304593;22;20448;-76
2022/10/06 08:31:21;;;;;;;32.22;4.47;;;;;;;;;;6303867;22;20460;-77
2022/10/06 08:33:52;;;;;;;38.30;5.78;;;;;;;;;;6303331;22;20059;-76
2022/10/06 08:36:27;;;;;;;31.75;5.47;;;;;;;;;;6303386;22;20450;-76
2022/10/06 08:38:58;;;;;;;38.47;5.85;;;;;;;;;;6302833;22;20024;-77
2022/10/06 08:41:37;;;;;;;30.67;5.03;;;;;;;;;;6304165;22;20106;-77
2022/10/06 08:44:21;;;;;;;38.47;5.90;;;;;;;;;;6302478;22;20049;-77
2022/10/06 08:47:02;;;;;;;37.40;5.15;;;;;;;;;;6303691;22;20474;-76
2022/10/06 08:49:38;;;;;;;34.13;5.05;;;;;;;;;;6304231;22;20023;-76
2022/10/06 08:52:08;;;;;;;26.27;4.93;;;;;;;;;;6304882;22;20015;-77
2022/10/06 08:54:39;;;;;;;28.10;5.07;;;;;;;;;;6303338;22;20051;-76
2022/10/06 08:57:13;;;;;;;;;;;;;;;;;;6305934;22;20472;-77
2022/10/06 08:59:43;;;;;;;32.58;5.53;;;;;;;;;;6304724;22;19938;-76
2022/10/06 09:02:40;;;;;;;35.05;5.00;;;;;;;;;;6303906;22;20389;-77
2022/10/06 09:05:08;;;;;;;33.35;5.15;;;;;;;;;;6304928;22;20019;-77
2022/10/06 09:07:42;;;;;;;32.47;5.53;;;;;;;;;;6303307;22;20102;-77
2022/10/06 09:10:37;;;;;;;29.73;4.05;;;;;;;;;;6276385;22;20098;-77
2022/10/06 09:13:15;;;;;;;36.47;4.15;;;;;;;;;;6304063;22;20147;-77
2022/10/06 09:15:56;;;;;;;32.95;4.68;;;;;;;;;;6303051;22;20103;-77
2022/10/06 09:18:34;;;;;;;27.30;4.03;;;;;;;;;;6303816;22;20065;-77
2022/10/06 09:21:42;;;;;;;24.45;3.90;;;;;;;;;;6304275;22;20023;-77
2022/10/06 09:24:17;;;;;;;26.13;4.75;;;;;;;;;;6302366;22;20015;-77
2022/10/06 09:26:46;;;;;;;25.20;4.95;;;;;;;;;;6303611;22;20069;-77
2022/10/06 09:29:14;;;;;;;26.02;4.45;;;;;;;;;;6303076;22;20352;-76
2022/10/06 09:31:51;;;;;;;32.05;4.43;;;;;;;;;;6277946;22;20054;-77
2022/10/06 09:34:25;;;;;;;24.50;4.18;;;;;;;;;;6303114;22;20090;-77
2022/10/06 09:37:07;;;;;;;25.55;4.63;;;;;;;;;;6303902;22;20042;-77
2022/10/06 09:39:36;;;;;;;33.35;4.18;;;;;;;;;;6303568;22;20022;-77
2022/10/06 09:42:09;;;;;;;24.73;4.18;;;;;;;;;;6277556;22;20023;-77
2022/10/06 09:44:49;;;;;;;31.98;5.90;;;;;;;;;;6301024;22;20019;-77
2022/10/06 09:47:49;;;;;;;34.25;5.15;;;;;;;;;;6303999;22;20106;-77
2022/10/06 09:50:23;;;;;;;25.52;3.95;;;;;;;;;;6303788;22;20464;-77
2022/10/06 09:53:02;;;;;;;31.23;4.53;;;;;;;;;;6303989;22;20026;-77
2022/10/06 09:55:39;;;;;;;26.33;4.28;;;;;;;;;;6302813;22;20099;-77
2022/10/06 09:58:36;;;;;;;33.42;5.78;;;;;;;;;;6303772;22;20023;-77
2022/10/06 10:01:06;;;;;;;30.73;4.30;;;;;;;;;;6303841;22;20117;-77
2022/10/06 10:03:41;;;;;;;35.58;5.30;;;;;;;;;;6304099;22;20030;-77
2022/10/06 10:06:31;;;;;;;31.73;5.47;;;;;;;;;;6303541;22;20397;-77
2022/10/06 10:09:18;;;;;;;46.60;5.90;;;;;;;;;;6302557;22;20059;-77
2022/10/06 10:15:04;;;;;;;33.38;4.90;;;;;;;;;;6302336;22;20536;-77
2022/10/06 10:17:40;;;;;;;31.40;5.32;;;;;;;;;;6303047;22;20050;-77
2022/10/06 10:20:22;;;;;;;34.45;5.45;;;;;;;;;;6303587;22;20023;-77
2022/10/06 10:22:57;;;;;;;34.30;6.13;;;;;;;;;;6303713;22;20071;-76
2022/10/06 10:25:31;;;;;;;28.27;5.50;;;;;;;;;;6302612;22;20102;-77
2022/10/06 10:28:14;;;;;;;30.48;4.65;;;;;;;;;;6303021;22;20046;-77
2022/10/06 10:30:50;;;;;;;38.83;5.82;;;;;;;;;;6302941;22;20034;-77
2022/10/06 10:33:34;;;;;;;36.63;5.20;;;;;;;;;;6303419;22;20027;-77
2022/10/06 10:36:01;;;;;;;30.30;5.03;;;;;;;;;;6302764;22;20370;-77
2022/10/06 10:38:39;;;;;;;41.90;6.25;;;;;;;;;;6276718;22;20026;-77
2022/10/06 10:41:12;;;;;;;24.30;5.07;;;;;;;;;;6303058;22;20853;-77
2022/10/06 10:43:52;;;;;;;26.65;5.15;;;;;;;;;;6300306;22;20065;-77
2022/10/06 10:46:29;;;;;;;33.33;5.07;;;;;;;;;;6302124;22;20483;-77
2022/10/06 10:49:12;;;;;;;30.63;5.20;;;;;;;;;;6302011;22;20030;-76
2022/10/06 10:51:42;;;;;;;35.15;5.97;;;;;;;;;;6301695;22;20071;-76
2022/10/06 10:54:19;;;;;;;24.77;4.13;;;;;;;;;;6302673;22;20098;-77
2022/10/06 10:56:48;;;;;;;25.67;5.30;;;;;;;;;;6274200;22;20023;-76
2022/10/06 10:59:26;;;;;;;34.47;5.28;;;;;;;;;;6301859;22;20487;-77
2022/10/06 11:02:00;;;;;;;25.60;4.25;;;;;;;;;;6302671;22;20026;-77
2022/10/06 11:04:34;;;;;;;34.28;5.25;;;;;;;;;;6302002;22;20029;-76
2022/10/06 11:07:25;;;;;;;29.63;5.15;;;;;;;;;;6274908;22;20515;-77
2022/10/06 11:09:58;;;;;;;28.13;4.50;;;;;;;;;;6276087;22;20456;-77
2022/10/06 11:12:39;;;;;;;23.88;5.25;;;;;;;;;;6274816;22;20476;-77
2022/10/06 11:15:16;;;;;;;35.13;5.55;;;;;;;;;;6277132;22;20043;-77
2022/10/06 11:17:45;;;;;;;29.95;4.95;;;;;;;;;;6302783;22;20103;-76
2022/10/06 11:20:13;;;;;;;33.47;5.50;;;;;;;;;;6302052;22;20465;-76
2022/10/06 11:22:52;;;;;;;35.67;5.60;;;;;;;;;;6275589;22;20225;-77
2022/10/06 11:25:19;;;;;;;30.00;5.07;;;;;;;;;;6301434;22;20058;-78
2022/10/06 11:28:02;;;;;;;52.17;6.05;;;;;;;;;;6277881;22;20098;-77
2022/10/06 11:30:33;;;;;;;34.63;5.43;;;;;;;;;;6301469;22;20019;-77
2022/10/06 11:33:19;;;;;;;34.47;5.55;;;;;;;;;;6301936;22;20060;-76
2022/10/06 11:35:47;;;;;;;31.75;5.55;;;;;;;;;;6301688;22;20106;-77
2022/10/06 11:38:24;;;;;;;36.30;6.25;;;;;;;;;;6277792;22;20019;-77
2022/10/06 11:41:10;;;;;;;30.92;5.78;;;;;;;;;;6306738;22;20098;-77
2022/10/06 11:43:59;;;;;;;35.22;6.25;;;;;;;;;;6277852;22;20622;-77
2022/10/06 11:46:37;;;;;;;29.35;4.90;;;;;;;;;;6305203;22;20061;-76
2022/10/06 11:49:32;;;;;;;29.55;5.93;;;;;;;;;;6306379;22;20029;-76
2022/10/06 11:52:05;;;;;;;28.10;5.30;;;;;;;;;;6276458;22;20029;-77
2022/10/06 11:54:39;;;;;;;37.58;5.85;;;;;;;;;;6305588;22;20281;-77
2022/10/06 11:57:22;;;;;;;34.90;5.05;;;;;;;;;;6304705;22;20136;-77
2022/10/06 12:00:09;;;;;;;30.75;5.38;;;;;;;;;;6304805;22;20023;-77
2022/10/06 12:02:38;;;;;;;31.00;5.68;;;;;;;;;;6304975;22;20030;-77
2022/10/06 12:05:14;;;;;;;27.23;4.50;;;;;;;;;;6305303;22;20502;-76
2022/10/06 12:08:01;;;;;;;25.98;5.00;;;;;;;;;;6303951;22;20030;-76
2022/10/06 12:10:35;;;;;;;33.67;5.22;;;;;;;;;;6305704;22;20057;-77
2022/10/06 12:13:02;;;;;;;;;;;;;;;;;;6305763;22;20419;-77
2022/10/06 12:15:47;;;;;;;27.67;4.97;;;;;;;;;;6304208;22;19918;-77
2022/10/06 12:18:43;;;;;;;31.58;4.97;;;;;;;;;;6305587;22;20027;-76
2022/10/06 12:21:19;;;;;;;32.47;5.72;;;;;;;;;;6305747;22;20070;-77
2022/10/06 12:24:02;;;;;;;41.10;5.47;;;;;;;;;;6305466;22;20102;-76
2022/10/06 12:26:40;;;;;;;31.48;5.47;;;;;;;;;;6305329;22;20366;-76
2022/10/06 12:29:14;;;;;;;36.75;6.25;;;;;;;;;;6305004;22;20015;-77
2022/10/06 12:32:00;;;;;;;33.80;5.15;;;;;;;;;;6304622;22;20023;-77
2022/10/06 12:34:40;;;;;;;33.67;5.82;;;;;;;;;;6305043;22;20020;-77
2022/10/06 12:37:20;;;;;;;30.40;4.60;;;;;;;;;;6304089;22;20027;-76
2022/10/06 12:40:13;;;;;;;33.78;6.45;;;;;;;;;;6305765;22;20448;-77
2022/10/06 12:42:41;;;;;;;28.20;5.68;;;;;;;;;;6257118;22;20039;-77
2022/10/06 12:45:22;;;;;;;32.50;4.85;;;;;;;;;;6303154;22;20015;-77
2022/10/06 12:47:56;;;;;;;29.02;5.70;;;;;;;;;;6304996;22;20122;-76
2022/10/06 12:50:29;;;;;;;28.10;5.05;;;;;;;;;;6276485;22;20424;-76
2022/10/06 12:53:04;;;;;;;33.75;5.43;;;;;;;;;;6303627;22;20102;-77
2022/10/06 12:55:50;;;;;;;28.33;5.40;;;;;;;;;;6304070;22;20106;-77
2022/10/06 12:58:19;;;;;;;31.58;5.93;;;;;;;;;;6303081;22;20058;-77
2022/10/06 13:00:52;;;;;;;37.63;6.03;;;;;;;;;;6278686;22;20098;-77
2022/10/06 13:03:24;;;;;;;36.78;5.90;;;;;;;;;;6303630;22;20023;-77
2022/10/06 13:06:02;;;;;;;31.17;6.57;;;;;;;;;;6304085;22;20094;-77
2022/10/06 13:08:30;;;;;;;33.92;6.18;;;;;;;;;;6302901;22;20464;-77
2022/10/06 13:11:16;;;;;;;35.90;6.25;;;;;;;;;;6302677;22;20020;-77
2022/10/06 13:13:51;;;;;;;33.28;6.35;;;;;;;;;;6303166;22;20023;-77
2022/10/06 13:16:27;;;;;;;33.55;6.35;;;;;;;;;;6302836;22;20054;-76
2022/10/06 13:18:56;;;;;;;38.30;5.75;;;;;;;;;;6302401;22;20019;-77
2022/10/06 13:21:24;;;;;;;36.50;6.47;;;;;;;;;;6303232;22;20016;-76
2022/10/06 13:23:57;;;;;;;33.17;6.60;;;;;;;;;;6303092;22;20098;-77
2022/10/06 13:26:26;;;;;;;42.58;6.68;;;;;;;;;;6303439;22;20519;-77
2022/10/06 13:29:00;;;;;;;39.83;6.25;;;;;;;;;;6303221;22;20027;-77
2022/10/06 13:31:36;;;;;;;52.53;5.93;;;;;;;;;;6303037;22;20019;-77
2022/10/06 13:34:23;;;;;;;50.77;7.77;;;;;;;;;;6303257;22;20096;-77
2022/10/06 13:36:51;;;;;;;40.80;7.05;;;;;;;;;;6276733;22;20098;-76
2022/10/06 13:39:30;;;;;;;50.03;8.02;;;;;;;;;;6304127;22;20034;-76
2022/10/06 13:41:59;;;;;;;35.45;6.22;;;;;;;;;;6303283;22;20023;-77
2022/10/06 13:44:42;;;;;;;43.30;7.25;;;;;;;;;;6301066;22;20019;-76
2022/10/06 13:47:17;;;;;;;55.25;7.32;;;;;;;;;;6277028;22;20019;-77
2022/10/06 13:50:03;;;;;;;42.05;8.07;;;;;;;;;;6303028;22;20527;-77
2022/10/06 13:52:43;;;;;;;52.05;7.72;;;;;;;;;;6276727;22;20016;-76
2022/10/06 13:55:23;;;;;;;38.63;6.00;;;;;;;;;;6303384;22;20395;-77
2022/10/06 13:57:57;;;;;;;38.97;6.47;;;;;;;;;;6303029;22;20051;-76
2022/10/06 14:00:55;;;;;;;39.70;5.88;;;;;;;;;;6279304;22;20023;-76
2022/10/06 14:03:35;;;;;;;43.85;6.82;;;;;;;;;;6303810;22;20116;-77
2022/10/06 14:06:15;;;;;;;37.13;5.70;;;;;;;;;;6303704;22;20519;-77
2022/10/06 14:08:45;;;;;;;41.60;6.00;;;;;;;;;;6303205;22;20027;-77
2022/10/06 14:11:24;;;;;;;43.97;8.00;;;;;;;;;;6303262;22;20019;-77
2022/10/06 14:13:51;;;;;;;40.75;7.07;;;;;;;;;;6303780;22;20094;-77
2022/10/06 14:16:22;;;;;;;36.75;5.20;;;;;;;;;;6275788;22;20029;-77
2022/10/06 14:18:57;;;;;;;;;;;;;;;;;;6303082;22;20033;-76
2022/10/06 14:21:47;;;;;;;59.60;6.88;;;;;;;;;;6301422;22;20010;-77
2022/10/06 14:24:27;;;;;;;38.55;6.40;;;;;;;;;;6276587;22;20019;-77
2022/10/06 14:26:59;;;;;;;41.95;5.82;;;;;;;;;;6300593;22;20015;-77
2022/10/06 14:29:35;;;;;;;43.13;7.32;;;;;;;;;;6302702;22;20033;-77
2022/10/06 14:32:15;;;;;;;47.38;7.15;;;;;;;;;;6302930;22;20094;-77
2022/10/06 14:34:49;;;;;;;46.25;6.50;;;;;;;;;;6302598;22;20110;-77
2022/10/06 14:37:16;;;;;;;47.25;7.05;;;;;;;;;;6302836;22;20073;-77
2022/10/06 14:39:44;;;;;;;47.50;7.38;;;;;;;;;;6302631;22;20106;-76
2022/10/06 14:42:23;;;;;;;48.17;7.07;;;;;;;;;;6301730;22;20026;-76
2022/10/06 14:44:56;;;;;;;38.55;5.93;;;;;;;;;;6268484;22;20026;-77
2022/10/06 14:47:31;;;;;;;48.50;7.00;;;;;;;;;;6269472;22;20030;-77
2022/10/06 14:49:58;;;;;;;46.90;5.85;;;;;;;;;;6270453;22;20019;-78
2022/10/06 14:52:25;;;;;;;38.22;5.50;;;;;;;;;;6270034;22;20543;-77
2022/10/06 14:54:58;;;;;;;46.88;6.47;;;;;;;;;;6271927;22;20026;-76
2022/10/06 14:57:26;;;;;;;40.05;6.47;;;;;;;;;;6271450;22;20473;-76
2022/10/06 15:00:00;;;;;;;38.92;5.90;;;;;;;;;;6271526;22;20107;-76
2022/10/06 15:02:28;;;;;;;39.90;7.38;;;;;;;;;;6272073;22;20344;-76
2022/10/06 15:04:56;;;;;;;47.95;7.65;;;;;;;;;;6269771;22;20023;-76
2022/10/06 15:10:15;;;;;;;31.60;5.63;;;;;;;;;;6272141;22;20019;-76
2022/10/06 15:12:52;;;;;;;47.90;8.07;;;;;;;;;;6270703;22;20026;-76
2022/10/06 15:15:19;;;;;;;43.35;6.85;;;;;;;;;;6271153;22;20460;-76
2022/10/06 15:17:53;;;;;;;46.88;7.63;;;;;;;;;;6271823;22;20016;-76
2022/10/06 15:20:20;;;;;;;43.22;6.25;;;;;;;;;;6270746;22;20024;-76
2022/10/06 15:22:47;;;;;;;41.03;6.70;;;;;;;;;;6271596;22;20147;-76
2022/10/06 15:31:02;;;;;;;50.75;6.70;;;;;;;;;;6271199;22;20425;-76
2022/10/06 15:33:30;;;;;;;50.55;6.95;;;;;;;;;;6265959;22;20031;-76
2022/10/06 15:36:17;;;;;;;43.83;6.60;;;;;;;;;;6266692;22;20058;-76